Main page
METAR-TAF:

METAR-TAF

Airports :

Doha International Airport

Doha, Qatar

latitude: 25-15-40N, longitude: 051-33-54E, elevation: 11 m

Current weather observation

The report was made 25 minutes ago, at 06:00 UTC
Wind 7 kt from the West/Northwest, varying between West and North/Northwest
Temperature 23°C
Humidity 53%
Pressure 1021 hPa
Visibility 10 km or more
Few clouds at a height of 3000 ft

METAR: OTBD 220600Z 30007KT 260V330 9999 FEW030 23/13 Q1021 NOSIG

Time: 09:25 (06:25 UTC)

Forecast

The report was made 1 hour and 16 minutes ago, at 05:09 UTC
Forecast valid from 22 at 06 UTC to 23 at 12 UTC
Wind 13 kt from the Northwest
Visibility: 9000 m

TAF: OTBD 220509Z 2206/2312 32013KT 9000 NSC

Weather observations and forecasts of more than 4000 airports (METAR and TAF reports).

The available stations are represented by yellow and red dots on the map.

Hover mouse over dot to see the name of the station.

Then click to see weather observations and forecasts.

To change the map : click on the green buttons with a black cross to zoom in, on the green button with a dash to zoom out, or on the green arrows for adjacent maps.


METAR-TAF: